sensor_id;sensor_type;location;lat;lon;timestamp;P1;durP1;ratioP1;P2;durP2;ratioP2
5742;SDS011;2896;53.500;10.020;2022-11-11T00:00:57;13.33;;;3.87;;
5742;SDS011;2896;53.500;10.020;2022-11-11T00:03:25;8.70;;;3.37;;
5742;SDS011;2896;53.500;10.020;2022-11-11T00:05:52;6.53;;;3.20;;
5742;SDS011;2896;53.500;10.020;2022-11-11T00:08:19;5.60;;;3.50;;
5742;SDS011;2896;53.500;10.020;2022-11-11T00:10:47;9.00;;;3.80;;
5742;SDS011;2896;53.500;10.020;2022-11-11T00:13:14;9.77;;;3.73;;
5742;SDS011;2896;53.500;10.020;2022-11-11T00:15:41;8.60;;;4.50;;
5742;SDS011;2896;53.500;10.020;2022-11-11T00:18:08;10.40;;;3.67;;
5742;SDS011;2896;53.500;10.020;2022-11-11T00:21:02;8.07;;;3.63;;
5742;SDS011;2896;53.500;10.020;2022-11-11T00:23:47;7.37;;;3.47;;
5742;SDS011;2896;53.500;10.020;2022-11-11T00:26:32;12.77;;;3.30;;
5742;SDS011;2896;53.500;10.020;2022-11-11T00:28:59;6.90;;;3.37;;
5742;SDS011;2896;53.500;10.020;2022-11-11T00:31:26;8.13;;;4.00;;
5742;SDS011;2896;53.500;10.020;2022-11-11T00:33:53;9.47;;;4.40;;
5742;SDS011;2896;53.500;10.020;2022-11-11T00:36:19;17.63;;;4.40;;
5742;SDS011;2896;53.500;10.020;2022-11-11T00:38:45;15.97;;;5.77;;
5742;SDS011;2896;53.500;10.020;2022-11-11T00:41:14;12.40;;;4.53;;
5742;SDS011;2896;53.500;10.020;2022-11-11T00:43:43;9.63;;;5.10;;
5742;SDS011;2896;53.500;10.020;2022-11-11T00:46:11;14.63;;;4.60;;
5742;SDS011;2896;53.500;10.020;2022-11-11T00:48:56;9.37;;;5.20;;
5742;SDS011;2896;53.500;10.020;2022-11-11T00:51:40;8.77;;;4.53;;
5742;SDS011;2896;53.500;10.020;2022-11-11T00:54:07;14.90;;;6.60;;
5742;SDS011;2896;53.500;10.020;2022-11-11T00:56:34;11.57;;;5.43;;
5742;SDS011;2896;53.500;10.020;2022-11-11T00:59:03;8.93;;;5.90;;
5742;SDS011;2896;53.500;10.020;2022-11-11T01:01:30;13.77;;;6.17;;
5742;SDS011;2896;53.500;10.020;2022-11-11T01:03:57;10.50;;;5.07;;
5742;SDS011;2896;53.500;10.020;2022-11-11T01:06:24;13.03;;;5.53;;
5742;SDS011;2896;53.500;10.020;2022-11-11T01:08:50;14.80;;;5.83;;
5742;SDS011;2896;53.500;10.020;2022-11-11T01:11:19;13.87;;;5.67;;
5742;SDS011;2896;53.500;10.020;2022-11-11T01:13:47;12.33;;;5.60;;
5742;SDS011;2896;53.500;10.020;2022-11-11T01:16:17;16.20;;;5.70;;
5742;SDS011;2896;53.500;10.020;2022-11-11T01:18:46;18.27;;;5.67;;
5742;SDS011;2896;53.500;10.020;2022-11-11T01:21:13;12.43;;;6.20;;
5742;SDS011;2896;53.500;10.020;2022-11-11T01:23:41;14.87;;;5.10;;
5742;SDS011;2896;53.500;10.020;2022-11-11T01:26:13;9.63;;;5.87;;
5742;SDS011;2896;53.500;10.020;2022-11-11T01:28:41;12.00;;;5.50;;
5742;SDS011;2896;53.500;10.020;2022-11-11T01:31:09;11.63;;;5.93;;
5742;SDS011;2896;53.500;10.020;2022-11-11T01:33:38;16.57;;;5.43;;
5742;SDS011;2896;53.500;10.020;2022-11-11T01:36:06;16.67;;;6.60;;
5742;SDS011;2896;53.500;10.020;2022-11-11T01:38:34;17.37;;;5.90;;
5742;SDS011;2896;53.500;10.020;2022-11-11T01:41:02;11.23;;;6.90;;
5742;SDS011;2896;53.500;10.020;2022-11-11T01:43:51;14.10;;;5.33;;
5742;SDS011;2896;53.500;10.020;2022-11-11T01:46:26;11.13;;;5.10;;
5742;SDS011;2896;53.500;10.020;2022-11-11T01:49:01;12.10;;;6.27;;
5742;SDS011;2896;53.500;10.020;2022-11-11T01:51:46;11.63;;;5.53;;
5742;SDS011;2896;53.500;10.020;2022-11-11T01:54:18;9.33;;;5.43;;
5742;SDS011;2896;53.500;10.020;2022-11-11T01:56:48;17.77;;;6.63;;
5742;SDS011;2896;53.500;10.020;2022-11-11T01:59:19;18.27;;;6.57;;
5742;SDS011;2896;53.500;10.020;2022-11-11T02:01:46;10.40;;;6.43;;
5742;SDS011;2896;53.500;10.020;2022-11-11T02:04:14;19.93;;;6.50;;
5742;SDS011;2896;53.500;10.020;2022-11-11T02:07:01;14.20;;;6.80;;
5742;SDS011;2896;53.500;10.020;2022-11-11T02:09:32;16.33;;;6.80;;
5742;SDS011;2896;53.500;10.020;2022-11-11T02:12:00;14.03;;;6.10;;
5742;SDS011;2896;53.500;10.020;2022-11-11T02:14:52;12.67;;;7.03;;
5742;SDS011;2896;53.500;10.020;2022-11-11T02:17:22;12.03;;;6.00;;
5742;SDS011;2896;53.500;10.020;2022-11-11T02:19:52;13.73;;;5.93;;
5742;SDS011;2896;53.500;10.020;2022-11-11T02:22:22;19.73;;;5.97;;
5742;SDS011;2896;53.500;10.020;2022-11-11T02:24:56;22.07;;;6.20;;
5742;SDS011;2896;53.500;10.020;2022-11-11T02:27:23;19.20;;;6.13;;
5742;SDS011;2896;53.500;10.020;2022-11-11T02:29:54;15.77;;;7.10;;
5742;SDS011;2896;53.500;10.020;2022-11-11T02:32:23;10.03;;;5.93;;
5742;SDS011;2896;53.500;10.020;2022-11-11T02:34:49;9.10;;;6.07;;
5742;SDS011;2896;53.500;10.020;2022-11-11T02:37:17;8.63;;;5.20;;
5742;SDS011;2896;53.500;10.020;2022-11-11T02:39:46;9.63;;;5.30;;
5742;SDS011;2896;53.500;10.020;2022-11-11T02:42:16;11.27;;;6.00;;
5742;SDS011;2896;53.500;10.020;2022-11-11T02:44:45;16.03;;;6.80;;
5742;SDS011;2896;53.500;10.020;2022-11-11T02:47:11;13.13;;;6.37;;
5742;SDS011;2896;53.500;10.020;2022-11-11T02:49:38;10.77;;;5.63;;
5742;SDS011;2896;53.500;10.020;2022-11-11T02:52:05;16.20;;;5.83;;
5742;SDS011;2896;53.500;10.020;2022-11-11T02:54:32;10.83;;;5.70;;
5742;SDS011;2896;53.500;10.020;2022-11-11T02:56:58;18.30;;;6.53;;
5742;SDS011;2896;53.500;10.020;2022-11-11T02:59:36;18.43;;;6.37;;
5742;SDS011;2896;53.500;10.020;2022-11-11T03:02:03;12.93;;;5.57;;
5742;SDS011;2896;53.500;10.020;2022-11-11T03:04:31;12.40;;;5.93;;
5742;SDS011;2896;53.500;10.020;2022-11-11T03:06:58;18.20;;;6.27;;
5742;SDS011;2896;53.500;10.020;2022-11-11T03:09:25;10.17;;;5.43;;
5742;SDS011;2896;53.500;10.020;2022-11-11T03:11:52;14.43;;;6.17;;
5742;SDS011;2896;53.500;10.020;2022-11-11T03:14:18;14.13;;;6.33;;
5742;SDS011;2896;53.500;10.020;2022-11-11T03:16:46;11.00;;;6.70;;
5742;SDS011;2896;53.500;10.020;2022-11-11T03:19:30;21.57;;;6.27;;
5742;SDS011;2896;53.500;10.020;2022-11-11T03:21:57;11.93;;;6.07;;
5742;SDS011;2896;53.500;10.020;2022-11-11T03:24:23;14.40;;;5.60;;
5742;SDS011;2896;53.500;10.020;2022-11-11T03:27:10;14.70;;;6.40;;
5742;SDS011;2896;53.500;10.020;2022-11-11T03:29:37;15.50;;;5.63;;
5742;SDS011;2896;53.500;10.020;2022-11-11T03:32:05;12.87;;;6.30;;
5742;SDS011;2896;53.500;10.020;2022-11-11T03:34:32;26.90;;;6.30;;
5742;SDS011;2896;53.500;10.020;2022-11-11T03:36:58;13.13;;;5.47;;
5742;SDS011;2896;53.500;10.020;2022-11-11T03:39:43;10.60;;;6.00;;
5742;SDS011;2896;53.500;10.020;2022-11-11T03:42:09;15.10;;;6.30;;
5742;SDS011;2896;53.500;10.020;2022-11-11T03:44:36;12.53;;;6.10;;
5742;SDS011;2896;53.500;10.020;2022-11-11T03:47:03;18.87;;;6.73;;
5742;SDS011;2896;53.500;10.020;2022-11-11T03:49:31;10.03;;;6.70;;
5742;SDS011;2896;53.500;10.020;2022-11-11T03:51:57;22.20;;;7.60;;
5742;SDS011;2896;53.500;10.020;2022-11-11T03:54:24;22.13;;;7.60;;
5742;SDS011;2896;53.500;10.020;2022-11-11T03:56:50;17.30;;;6.27;;
5742;SDS011;2896;53.500;10.020;2022-11-11T03:59:37;19.67;;;7.93;;
5742;SDS011;2896;53.500;10.020;2022-11-11T04:02:04;12.70;;;6.60;;
5742;SDS011;2896;53.500;10.020;2022-11-11T04:04:49;13.40;;;6.57;;
5742;SDS011;2896;53.500;10.020;2022-11-11T04:07:34;12.30;;;6.20;;
5742;SDS011;2896;53.500;10.020;2022-11-11T04:10:18;16.13;;;7.20;;
5742;SDS011;2896;53.500;10.020;2022-11-11T04:12:50;20.07;;;7.53;;
5742;SDS011;2896;53.500;10.020;2022-11-11T04:15:36;18.53;;;6.90;;
5742;SDS011;2896;53.500;10.020;2022-11-11T04:18:20;12.50;;;7.03;;
5742;SDS011;2896;53.500;10.020;2022-11-11T04:21:08;20.83;;;7.40;;
5742;SDS011;2896;53.500;10.020;2022-11-11T04:23:52;13.50;;;7.87;;
5742;SDS011;2896;53.500;10.020;2022-11-11T04:26:19;16.13;;;7.87;;
5742;SDS011;2896;53.500;10.020;2022-11-11T04:28:45;25.10;;;8.43;;
5742;SDS011;2896;53.500;10.020;2022-11-11T04:31:30;16.80;;;7.97;;
5742;SDS011;2896;53.500;10.020;2022-11-11T04:33:57;24.00;;;7.60;;
5742;SDS011;2896;53.500;10.020;2022-11-11T04:36:24;15.03;;;8.30;;
5742;SDS011;2896;53.500;10.020;2022-11-11T04:38:51;13.43;;;7.77;;
5742;SDS011;2896;53.500;10.020;2022-11-11T04:41:35;13.97;;;7.80;;
5742;SDS011;2896;53.500;10.020;2022-11-11T04:44:02;22.23;;;8.27;;
5742;SDS011;2896;53.500;10.020;2022-11-11T04:46:47;15.53;;;7.53;;
5742;SDS011;2896;53.500;10.020;2022-11-11T04:49:13;16.03;;;8.00;;
5742;SDS011;2896;53.500;10.020;2022-11-11T04:51:41;13.63;;;8.03;;
5742;SDS011;2896;53.500;10.020;2022-11-11T04:54:22;27.33;;;9.70;;
5742;SDS011;2896;53.500;10.020;2022-11-11T04:56:48;17.03;;;9.43;;
5742;SDS011;2896;53.500;10.020;2022-11-11T04:59:14;13.77;;;9.37;;
5742;SDS011;2896;53.500;10.020;2022-11-11T05:01:41;20.73;;;8.73;;
5742;SDS011;2896;53.500;10.020;2022-11-11T05:04:25;12.47;;;8.30;;
5742;SDS011;2896;53.500;10.020;2022-11-11T05:06:53;19.30;;;9.60;;
5742;SDS011;2896;53.500;10.020;2022-11-11T05:09:38;21.47;;;9.40;;
5742;SDS011;2896;53.500;10.020;2022-11-11T05:12:04;23.23;;;8.80;;
5742;SDS011;2896;53.500;10.020;2022-11-11T05:14:31;18.90;;;8.93;;
5742;SDS011;2896;53.500;10.020;2022-11-11T05:17:15;15.77;;;8.50;;
5742;SDS011;2896;53.500;10.020;2022-11-11T05:19:59;18.07;;;9.23;;
5742;SDS011;2896;53.500;10.020;2022-11-11T05:22:45;17.77;;;8.67;;
5742;SDS011;2896;53.500;10.020;2022-11-11T05:25:11;17.63;;;9.37;;
5742;SDS011;2896;53.500;10.020;2022-11-11T05:27:50;15.90;;;9.20;;
5742;SDS011;2896;53.500;10.020;2022-11-11T05:30:17;25.27;;;10.00;;
5742;SDS011;2896;53.500;10.020;2022-11-11T05:32:44;33.73;;;9.97;;
5742;SDS011;2896;53.500;10.020;2022-11-11T05:35:11;10.27;;;7.80;;
5742;SDS011;2896;53.500;10.020;2022-11-11T05:37:39;18.03;;;9.93;;
5742;SDS011;2896;53.500;10.020;2022-11-11T05:40:08;25.17;;;12.20;;
5742;SDS011;2896;53.500;10.020;2022-11-11T05:42:39;17.03;;;11.27;;
5742;SDS011;2896;53.500;10.020;2022-11-11T05:45:06;20.47;;;10.70;;
5742;SDS011;2896;53.500;10.020;2022-11-11T05:47:34;14.83;;;10.53;;
5742;SDS011;2896;53.500;10.020;2022-11-11T05:50:00;21.40;;;11.03;;
5742;SDS011;2896;53.500;10.020;2022-11-11T05:52:27;18.83;;;10.70;;
5742;SDS011;2896;53.500;10.020;2022-11-11T05:54:53;17.70;;;10.53;;
5742;SDS011;2896;53.500;10.020;2022-11-11T05:57:21;22.27;;;12.03;;
5742;SDS011;2896;53.500;10.020;2022-11-11T05:59:48;19.13;;;11.20;;
5742;SDS011;2896;53.500;10.020;2022-11-11T06:02:15;21.43;;;11.43;;
5742;SDS011;2896;53.500;10.020;2022-11-11T06:04:41;22.25;;;10.80;;
5742;SDS011;2896;53.500;10.020;2022-11-11T06:07:08;20.73;;;11.60;;
5742;SDS011;2896;53.500;10.020;2022-11-11T06:09:35;20.07;;;11.13;;
5742;SDS011;2896;53.500;10.020;2022-11-11T06:12:01;24.50;;;11.60;;
5742;SDS011;2896;53.500;10.020;2022-11-11T06:14:29;37.47;;;12.53;;
5742;SDS011;2896;53.500;10.020;2022-11-11T06:16:56;16.97;;;12.20;;
5742;SDS011;2896;53.500;10.020;2022-11-11T06:19:22;21.87;;;11.90;;
5742;SDS011;2896;53.500;10.020;2022-11-11T06:21:49;20.70;;;12.50;;
5742;SDS011;2896;53.500;10.020;2022-11-11T06:24:21;19.20;;;11.00;;
5742;SDS011;2896;53.500;10.020;2022-11-11T06:26:48;35.20;;;13.13;;
5742;SDS011;2896;53.500;10.020;2022-11-11T06:29:14;19.90;;;11.23;;
5742;SDS011;2896;53.500;10.020;2022-11-11T06:31:42;20.07;;;11.60;;
5742;SDS011;2896;53.500;10.020;2022-11-11T06:34:09;23.27;;;12.80;;
5742;SDS011;2896;53.500;10.020;2022-11-11T06:36:36;31.87;;;13.07;;
5742;SDS011;2896;53.500;10.020;2022-11-11T06:39:02;22.57;;;12.00;;
5742;SDS011;2896;53.500;10.020;2022-11-11T06:41:29;31.73;;;13.27;;
5742;SDS011;2896;53.500;10.020;2022-11-11T06:43:56;19.57;;;12.37;;
5742;SDS011;2896;53.500;10.020;2022-11-11T06:46:23;28.23;;;13.63;;
5742;SDS011;2896;53.500;10.020;2022-11-11T06:48:52;32.07;;;14.27;;
5742;SDS011;2896;53.500;10.020;2022-11-11T06:51:18;21.03;;;13.00;;
5742;SDS011;2896;53.500;10.020;2022-11-11T06:53:45;30.83;;;14.53;;
5742;SDS011;2896;53.500;10.020;2022-11-11T06:56:12;29.50;;;14.30;;
5742;SDS011;2896;53.500;10.020;2022-11-11T06:58:38;28.00;;;13.33;;
5742;SDS011;2896;53.500;10.020;2022-11-11T07:01:05;33.00;;;14.67;;
5742;SDS011;2896;53.500;10.020;2022-11-11T07:03:33;23.17;;;13.70;;
5742;SDS011;2896;53.500;10.020;2022-11-11T07:06:03;25.80;;;13.40;;
5742;SDS011;2896;53.500;10.020;2022-11-11T07:08:30;25.00;;;13.30;;
5742;SDS011;2896;53.500;10.020;2022-11-11T07:10:57;23.00;;;13.27;;
5742;SDS011;2896;53.500;10.020;2022-11-11T07:13:24;43.83;;;16.43;;
5742;SDS011;2896;53.500;10.020;2022-11-11T07:15:51;31.10;;;15.13;;
5742;SDS011;2896;53.500;10.020;2022-11-11T07:18:17;27.10;;;14.10;;
5742;SDS011;2896;53.500;10.020;2022-11-11T07:20:44;27.27;;;15.93;;
5742;SDS011;2896;53.500;10.020;2022-11-11T07:23:12;29.30;;;14.47;;
5742;SDS011;2896;53.500;10.020;2022-11-11T07:25:40;31.43;;;14.03;;
5742;SDS011;2896;53.500;10.020;2022-11-11T07:28:08;23.37;;;14.00;;
5742;SDS011;2896;53.500;10.020;2022-11-11T07:30:35;33.47;;;15.70;;
5742;SDS011;2896;53.500;10.020;2022-11-11T07:33:01;29.20;;;15.63;;
5742;SDS011;2896;53.500;10.020;2022-11-11T07:35:28;31.43;;;15.63;;
5742;SDS011;2896;53.500;10.020;2022-11-11T07:37:55;28.20;;;16.57;;
5742;SDS011;2896;53.500;10.020;2022-11-11T07:40:23;40.93;;;16.30;;
5742;SDS011;2896;53.500;10.020;2022-11-11T07:42:49;27.63;;;16.33;;
5742;SDS011;2896;53.500;10.020;2022-11-11T07:45:16;30.77;;;14.73;;
5742;SDS011;2896;53.500;10.020;2022-11-11T07:47:43;41.77;;;17.50;;
5742;SDS011;2896;53.500;10.020;2022-11-11T07:50:10;40.30;;;16.50;;
5742;SDS011;2896;53.500;10.020;2022-11-11T07:52:37;38.80;;;18.00;;
5742;SDS011;2896;53.500;10.020;2022-11-11T07:55:05;34.93;;;16.40;;
5742;SDS011;2896;53.500;10.020;2022-11-11T07:57:33;40.40;;;17.27;;
5742;SDS011;2896;53.500;10.020;2022-11-11T08:00:00;37.37;;;18.10;;
5742;SDS011;2896;53.500;10.020;2022-11-11T08:02:27;48.83;;;18.00;;
5742;SDS011;2896;53.500;10.020;2022-11-11T08:04:54;34.80;;;17.53;;
5742;SDS011;2896;53.500;10.020;2022-11-11T08:07:21;34.07;;;16.30;;
5742;SDS011;2896;53.500;10.020;2022-11-11T08:09:48;42.83;;;17.83;;
5742;SDS011;2896;53.500;10.020;2022-11-11T08:12:14;33.20;;;17.23;;
5742;SDS011;2896;53.500;10.020;2022-11-11T08:15:00;28.27;;;17.00;;
5742;SDS011;2896;53.500;10.020;2022-11-11T08:17:26;33.00;;;16.17;;
5742;SDS011;2896;53.500;10.020;2022-11-11T08:19:53;33.73;;;19.33;;
5742;SDS011;2896;53.500;10.020;2022-11-11T08:22:20;33.87;;;17.30;;
5742;SDS011;2896;53.500;10.020;2022-11-11T08:24:46;40.00;;;17.67;;
5742;SDS011;2896;53.500;10.020;2022-11-11T08:27:13;38.63;;;18.93;;
5742;SDS011;2896;53.500;10.020;2022-11-11T08:29:40;37.57;;;16.33;;
5742;SDS011;2896;53.500;10.020;2022-11-11T08:32:08;34.10;;;17.03;;
5742;SDS011;2896;53.500;10.020;2022-11-11T08:34:35;27.93;;;16.50;;
5742;SDS011;2896;53.500;10.020;2022-11-11T08:37:02;25.60;;;16.17;;
5742;SDS011;2896;53.500;10.020;2022-11-11T08:39:29;24.30;;;16.37;;
5742;SDS011;2896;53.500;10.020;2022-11-11T08:41:55;30.27;;;16.70;;
5742;SDS011;2896;53.500;10.020;2022-11-11T08:44:22;33.57;;;17.43;;
5742;SDS011;2896;53.500;10.020;2022-11-11T08:46:48;30.30;;;16.80;;
5742;SDS011;2896;53.500;10.020;2022-11-11T08:49:16;32.70;;;17.43;;
5742;SDS011;2896;53.500;10.020;2022-11-11T08:51:43;32.27;;;14.30;;
5742;SDS011;2896;53.500;10.020;2022-11-11T08:54:10;31.20;;;16.03;;
5742;SDS011;2896;53.500;10.020;2022-11-11T08:56:36;30.23;;;15.83;;
5742;SDS011;2896;53.500;10.020;2022-11-11T08:59:04;25.03;;;16.80;;
5742;SDS011;2896;53.500;10.020;2022-11-11T09:01:31;25.37;;;15.70;;
5742;SDS011;2896;53.500;10.020;2022-11-11T09:03:57;32.77;;;16.00;;
5742;SDS011;2896;53.500;10.020;2022-11-11T09:06:25;31.90;;;17.10;;
5742;SDS011;2896;53.500;10.020;2022-11-11T09:08:53;26.90;;;16.23;;
5742;SDS011;2896;53.500;10.020;2022-11-11T09:11:20;31.17;;;16.10;;
5742;SDS011;2896;53.500;10.020;2022-11-11T09:13:47;21.90;;;15.30;;
5742;SDS011;2896;53.500;10.020;2022-11-11T09:16:14;30.03;;;15.70;;
5742;SDS011;2896;53.500;10.020;2022-11-11T09:18:41;34.20;;;17.00;;
5742;SDS011;2896;53.500;10.020;2022-11-11T09:21:07;28.83;;;16.57;;
5742;SDS011;2896;53.500;10.020;2022-11-11T09:23:35;36.23;;;17.37;;
5742;SDS011;2896;53.500;10.020;2022-11-11T09:26:02;26.40;;;16.07;;
5742;SDS011;2896;53.500;10.020;2022-11-11T09:28:29;27.73;;;15.50;;
5742;SDS011;2896;53.500;10.020;2022-11-11T09:30:57;30.77;;;16.30;;
5742;SDS011;2896;53.500;10.020;2022-11-11T09:33:24;30.13;;;16.00;;
5742;SDS011;2896;53.500;10.020;2022-11-11T09:35:51;35.83;;;15.80;;
5742;SDS011;2896;53.500;10.020;2022-11-11T09:38:18;36.60;;;17.17;;
5742;SDS011;2896;53.500;10.020;2022-11-11T09:40:50;30.03;;;16.20;;
5742;SDS011;2896;53.500;10.020;2022-11-11T09:43:27;31.53;;;16.47;;
5742;SDS011;2896;53.500;10.020;2022-11-11T09:46:05;32.03;;;16.70;;
5742;SDS011;2896;53.500;10.020;2022-11-11T09:48:53;32.50;;;15.93;;
5742;SDS011;2896;53.500;10.020;2022-11-11T09:51:39;42.73;;;17.43;;
5742;SDS011;2896;53.500;10.020;2022-11-11T09:54:13;27.53;;;16.57;;
5742;SDS011;2896;53.500;10.020;2022-11-11T09:56:47;31.57;;;16.27;;
5742;SDS011;2896;53.500;10.020;2022-11-11T09:59:14;30.87;;;15.40;;
5742;SDS011;2896;53.500;10.020;2022-11-11T10:01:44;27.40;;;16.43;;
5742;SDS011;2896;53.500;10.020;2022-11-11T10:04:25;26.03;;;15.83;;
5742;SDS011;2896;53.500;10.020;2022-11-11T10:06:56;41.43;;;16.40;;
5742;SDS011;2896;53.500;10.020;2022-11-11T10:09:30;23.30;;;14.70;;
5742;SDS011;2896;53.500;10.020;2022-11-11T10:12:06;34.40;;;16.33;;
5742;SDS011;2896;53.500;10.020;2022-11-11T10:14:36;29.73;;;16.47;;
5742;SDS011;2896;53.500;10.020;2022-11-11T10:17:06;26.73;;;16.27;;
5742;SDS011;2896;53.500;10.020;2022-11-11T10:19:44;29.73;;;16.80;;
5742;SDS011;2896;53.500;10.020;2022-11-11T10:22:19;26.03;;;14.47;;
5742;SDS011;2896;53.500;10.020;2022-11-11T10:24:48;29.53;;;17.57;;
5742;SDS011;2896;53.500;10.020;2022-11-11T10:27:20;23.07;;;16.03;;
5742;SDS011;2896;53.500;10.020;2022-11-11T10:29:48;28.37;;;15.47;;
5742;SDS011;2896;53.500;10.020;2022-11-11T10:32:16;33.97;;;15.40;;
5742;SDS011;2896;53.500;10.020;2022-11-11T10:34:45;27.87;;;17.17;;
5742;SDS011;2896;53.500;10.020;2022-11-11T10:37:16;22.83;;;14.83;;
5742;SDS011;2896;53.500;10.020;2022-11-11T10:39:47;24.93;;;15.30;;
5742;SDS011;2896;53.500;10.020;2022-11-11T10:42:25;23.20;;;15.30;;
5742;SDS011;2896;53.500;10.020;2022-11-11T10:44:52;22.77;;;16.20;;
5742;SDS011;2896;53.500;10.020;2022-11-11T10:47:27;26.63;;;16.10;;
5742;SDS011;2896;53.500;10.020;2022-11-11T10:50:06;24.70;;;14.60;;
5742;SDS011;2896;53.500;10.020;2022-11-11T10:52:40;23.10;;;14.60;;
5742;SDS011;2896;53.500;10.020;2022-11-11T10:55:10;34.27;;;16.00;;
5742;SDS011;2896;53.500;10.020;2022-11-11T10:57:45;26.93;;;16.80;;
5742;SDS011;2896;53.500;10.020;2022-11-11T11:00:16;25.87;;;15.07;;
5742;SDS011;2896;53.500;10.020;2022-11-11T11:02:44;31.63;;;17.17;;
5742;SDS011;2896;53.500;10.020;2022-11-11T11:05:19;28.23;;;16.10;;
5742;SDS011;2896;53.500;10.020;2022-11-11T11:07:50;27.60;;;16.63;;
5742;SDS011;2896;53.500;10.020;2022-11-11T11:10:22;24.13;;;14.70;;
5742;SDS011;2896;53.500;10.020;2022-11-11T11:12:57;27.53;;;17.10;;
5742;SDS011;2896;53.500;10.020;2022-11-11T11:15:29;31.43;;;16.90;;
5742;SDS011;2896;53.500;10.020;2022-11-11T11:18:00;24.90;;;16.27;;
5742;SDS011;2896;53.500;10.020;2022-11-11T11:20:30;26.47;;;16.33;;
5742;SDS011;2896;53.500;10.020;2022-11-11T11:22:58;26.23;;;15.23;;
5742;SDS011;2896;53.500;10.020;2022-11-11T11:25:26;28.90;;;16.80;;
5742;SDS011;2896;53.500;10.020;2022-11-11T11:28:05;28.83;;;17.70;;
5742;SDS011;2896;53.500;10.020;2022-11-11T11:30:34;24.80;;;16.77;;
5742;SDS011;2896;53.500;10.020;2022-11-11T11:33:01;28.30;;;16.27;;
5742;SDS011;2896;53.500;10.020;2022-11-11T11:35:30;21.90;;;16.17;;
5742;SDS011;2896;53.500;10.020;2022-11-11T11:37:59;27.27;;;16.07;;
5742;SDS011;2896;53.500;10.020;2022-11-11T11:40:26;47.63;;;17.13;;
5742;SDS011;2896;53.500;10.020;2022-11-11T11:43:18;42.87;;;16.80;;
5742;SDS011;2896;53.500;10.020;2022-11-11T11:45:53;21.53;;;14.73;;
5742;SDS011;2896;53.500;10.020;2022-11-11T11:48:24;37.40;;;15.80;;
5742;SDS011;2896;53.500;10.020;2022-11-11T11:51:00;35.53;;;17.03;;
5742;SDS011;2896;53.500;10.020;2022-11-11T11:53:39;31.73;;;17.03;;
5742;SDS011;2896;53.500;10.020;2022-11-11T11:56:17;27.80;;;15.97;;
5742;SDS011;2896;53.500;10.020;2022-11-11T11:58:56;30.40;;;15.80;;
5742;SDS011;2896;53.500;10.020;2022-11-11T12:01:33;25.47;;;16.50;;
5742;SDS011;2896;53.500;10.020;2022-11-11T12:04:14;26.27;;;15.60;;
5742;SDS011;2896;53.500;10.020;2022-11-11T12:07:08;23.57;;;15.60;;
5742;SDS011;2896;53.500;10.020;2022-11-11T12:09:45;25.90;;;15.70;;
5742;SDS011;2896;53.500;10.020;2022-11-11T12:12:25;24.10;;;15.47;;
5742;SDS011;2896;53.500;10.020;2022-11-11T12:15:01;21.90;;;15.07;;
5742;SDS011;2896;53.500;10.020;2022-11-11T12:17:39;19.10;;;13.93;;
5742;SDS011;2896;53.500;10.020;2022-11-11T12:20:15;23.67;;;15.00;;
5742;SDS011;2896;53.500;10.020;2022-11-11T12:22:52;16.17;;;13.37;;
5742;SDS011;2896;53.500;10.020;2022-11-11T12:25:36;35.60;;;14.20;;
5742;SDS011;2896;53.500;10.020;2022-11-11T12:28:16;20.20;;;12.77;;
5742;SDS011;2896;53.500;10.020;2022-11-11T12:30:53;19.40;;;12.70;;
5742;SDS011;2896;53.500;10.020;2022-11-11T12:33:32;19.37;;;12.57;;
5742;SDS011;2896;53.500;10.020;2022-11-11T12:36:08;18.33;;;12.70;;
5742;SDS011;2896;53.500;10.020;2022-11-11T12:38:45;26.60;;;12.33;;
5742;SDS011;2896;53.500;10.020;2022-11-11T12:41:19;28.60;;;12.40;;
5742;SDS011;2896;53.500;10.020;2022-11-11T12:43:53;20.60;;;12.60;;
5742;SDS011;2896;53.500;10.020;2022-11-11T12:46:25;18.83;;;12.07;;
5742;SDS011;2896;53.500;10.020;2022-11-11T12:49:02;18.47;;;10.80;;
5742;SDS011;2896;53.500;10.020;2022-11-11T12:51:43;19.23;;;11.00;;
5742;SDS011;2896;53.500;10.020;2022-11-11T12:54:22;18.10;;;11.73;;
5742;SDS011;2896;53.500;10.020;2022-11-11T12:56:58;16.47;;;10.90;;
5742;SDS011;2896;53.500;10.020;2022-11-11T12:59:33;63.87;;;14.77;;
5742;SDS011;2896;53.500;10.020;2022-11-11T13:02:28;14.57;;;11.53;;
5742;SDS011;2896;53.500;10.020;2022-11-11T13:05:12;23.27;;;11.57;;
5742;SDS011;2896;53.500;10.020;2022-11-11T13:07:49;20.57;;;11.93;;
5742;SDS011;2896;53.500;10.020;2022-11-11T13:10:30;28.80;;;12.43;;
5742;SDS011;2896;53.500;10.020;2022-11-11T13:13:16;19.43;;;12.17;;
5742;SDS011;2896;53.500;10.020;2022-11-11T13:15:53;17.93;;;11.60;;
5742;SDS011;2896;53.500;10.020;2022-11-11T13:18:24;22.00;;;11.97;;
5742;SDS011;2896;53.500;10.020;2022-11-11T13:20:55;12.60;;;10.20;;
5742;SDS011;2896;53.500;10.020;2022-11-11T13:23:24;19.63;;;11.60;;
5742;SDS011;2896;53.500;10.020;2022-11-11T13:25:53;20.10;;;11.90;;
5742;SDS011;2896;53.500;10.020;2022-11-11T13:28:25;18.37;;;12.03;;
5742;SDS011;2896;53.500;10.020;2022-11-11T13:30:57;18.83;;;12.30;;
5742;SDS011;2896;53.500;10.020;2022-11-11T13:33:41;15.37;;;11.97;;
5742;SDS011;2896;53.500;10.020;2022-11-11T13:36:11;38.33;;;13.17;;
5742;SDS011;2896;53.500;10.020;2022-11-11T13:38:43;44.73;;;13.10;;
5742;SDS011;2896;53.500;10.020;2022-11-11T13:41:12;20.80;;;12.40;;
5742;SDS011;2896;53.500;10.020;2022-11-11T13:43:48;17.43;;;12.67;;
5742;SDS011;2896;53.500;10.020;2022-11-11T13:49:07;18.90;;;13.40;;
5742;SDS011;2896;53.500;10.020;2022-11-11T13:51:44;24.70;;;14.00;;
5742;SDS011;2896;53.500;10.020;2022-11-11T13:54:21;28.13;;;15.20;;
5742;SDS011;2896;53.500;10.020;2022-11-11T13:56:51;17.97;;;12.90;;
5742;SDS011;2896;53.500;10.020;2022-11-11T13:59:26;28.97;;;15.10;;
5742;SDS011;2896;53.500;10.020;2022-11-11T14:02:12;20.03;;;12.90;;
5742;SDS011;2896;53.500;10.020;2022-11-11T14:07:51;24.23;;;12.03;;
5742;SDS011;2896;53.500;10.020;2022-11-11T14:16:10;19.60;;;11.93;;
5742;SDS011;2896;53.500;10.020;2022-11-11T14:18:38;23.93;;;11.93;;
5742;SDS011;2896;53.500;10.020;2022-11-11T14:21:09;20.00;;;12.17;;
5742;SDS011;2896;53.500;10.020;2022-11-11T14:23:37;18.70;;;12.47;;
5742;SDS011;2896;53.500;10.020;2022-11-11T14:26:24;16.10;;;11.00;;
5742;SDS011;2896;53.500;10.020;2022-11-11T14:28:53;19.87;;;12.77;;
5742;SDS011;2896;53.500;10.020;2022-11-11T14:31:43;15.67;;;10.63;;
5742;SDS011;2896;53.500;10.020;2022-11-11T14:34:22;16.50;;;11.17;;
5742;SDS011;2896;53.500;10.020;2022-11-11T14:37:00;16.90;;;10.97;;
5742;SDS011;2896;53.500;10.020;2022-11-11T14:39:36;23.90;;;12.90;;
5742;SDS011;2896;53.500;10.020;2022-11-11T14:42:40;14.20;;;11.77;;
5742;SDS011;2896;53.500;10.020;2022-11-11T14:45:49;21.60;;;11.67;;
5742;SDS011;2896;53.500;10.020;2022-11-11T14:51:35;16.20;;;10.53;;
5742;SDS011;2896;53.500;10.020;2022-11-11T14:54:29;14.47;;;10.20;;
5742;SDS011;2896;53.500;10.020;2022-11-11T14:57:02;24.10;;;11.80;;
5742;SDS011;2896;53.500;10.020;2022-11-11T14:59:34;17.73;;;10.20;;
5742;SDS011;2896;53.500;10.020;2022-11-11T15:02:01;23.20;;;11.73;;
5742;SDS011;2896;53.500;10.020;2022-11-11T15:04:36;24.20;;;14.17;;
5742;SDS011;2896;53.500;10.020;2022-11-11T15:07:04;22.53;;;11.30;;
5742;SDS011;2896;53.500;10.020;2022-11-11T15:09:44;17.20;;;11.93;;
5742;SDS011;2896;53.500;10.020;2022-11-11T15:12:23;13.50;;;10.53;;
5742;SDS011;2896;53.500;10.020;2022-11-11T15:15:00;16.03;;;10.50;;
5742;SDS011;2896;53.500;10.020;2022-11-11T15:17:35;11.40;;;9.50;;
5742;SDS011;2896;53.500;10.020;2022-11-11T15:20:18;17.40;;;10.60;;
5742;SDS011;2896;53.500;10.020;2022-11-11T15:22:53;12.23;;;9.47;;